createdAt,value
2022-08-30T00:15:19.393Z,11.77
2022-08-30T00:21:40.701Z,8.70
2022-08-30T00:33:58.334Z,13.57
2022-08-30T00:40:07.650Z,7.03
2022-08-30T01:10:52.672Z,8.57
2022-08-30T01:22:09.468Z,8.18
2022-08-30T01:27:13.511Z,7.70
2022-08-30T01:32:21.004Z,12.23
2022-08-30T01:37:28.022Z,10.90
2022-08-30T01:42:32.306Z,8.07
2022-08-30T01:47:35.812Z,8.88
2022-08-30T01:52:39.278Z,10.07
2022-08-30T01:57:43.625Z,12.70
2022-08-30T02:02:46.311Z,9.15
2022-08-30T02:07:48.974Z,12.13
2022-08-30T02:12:53.063Z,7.15
2022-08-30T02:17:55.827Z,11.65
2022-08-30T02:23:00.835Z,8.60
2022-08-30T02:28:05.737Z,12.80
2022-08-30T02:33:09.185Z,11.43
2022-08-30T02:38:11.916Z,10.07
2022-08-30T02:43:16.625Z,16.08
2022-08-30T02:48:20.457Z,12.70
2022-08-30T02:53:23.646Z,11.63
2022-08-30T02:58:31.303Z,7.35
2022-08-30T03:03:34.155Z,10.55
2022-08-30T03:08:37.791Z,9.90
2022-08-30T03:13:42.500Z,9.10
2022-08-30T03:18:45.308Z,9.65
2022-08-30T03:23:48.650Z,7.47
2022-08-30T03:28:53.440Z,9.25
2022-08-30T03:33:56.154Z,8.88
2022-08-30T03:38:58.908Z,8.43
2022-08-30T03:44:04.229Z,9.85
2022-08-30T03:49:09.479Z,7.93
2022-08-30T03:54:12.230Z,11.45
2022-08-30T03:59:16.461Z,13.40
2022-08-30T04:04:21.140Z,7.93
2022-08-30T04:09:24.795Z,8.15
2022-08-30T04:14:28.873Z,11.88
2022-08-30T04:19:31.852Z,7.50
2022-08-30T04:24:34.655Z,6.57
2022-08-30T04:29:38.677Z,6.77
2022-08-30T04:34:41.386Z,8.30
2022-08-30T04:39:44.069Z,6.87
2022-08-30T04:44:48.126Z,6.57
2022-08-30T04:49:50.805Z,7.17
2022-08-30T04:54:55.159Z,9.43
2022-08-30T04:59:59.196Z,9.53
2022-08-30T05:05:20.275Z,7.93
2022-08-30T05:10:23.501Z,6.88
2022-08-30T05:15:27.530Z,12.93
2022-08-30T05:20:30.329Z,5.60
2022-08-30T05:25:37.068Z,7.07
2022-08-30T05:30:41.572Z,7.30
2022-08-30T05:35:44.276Z,9.97
2022-08-30T05:40:47.028Z,4.93
2022-08-30T05:45:59.938Z,9.73
2022-08-30T05:51:08.358Z,8.95
2022-08-30T05:56:15.819Z,8.15
2022-08-30T06:01:25.859Z,9.45
2022-08-30T06:06:29.082Z,7.70
2022-08-30T06:11:31.959Z,10.10
2022-08-30T06:16:39.521Z,6.18
2022-08-30T06:21:43.307Z,13.13
2022-08-30T06:26:47.893Z,5.93
2022-08-30T06:31:51.955Z,6.82
2022-08-30T06:36:54.667Z,5.97
2022-08-30T06:41:57.372Z,10.48
2022-08-30T06:47:01.410Z,10.23
2022-08-30T06:52:05.200Z,8.70
2022-08-30T06:57:07.969Z,11.80
2022-08-30T07:02:12.431Z,10.80
2022-08-30T07:07:16.008Z,7.78
2022-08-30T07:12:18.708Z,7.38
2022-08-30T07:17:40.580Z,7.38
2022-08-30T07:46:26.023Z,11.23
2022-08-30T07:51:55.891Z,7.95
2022-08-30T08:10:24.384Z,7.43
2022-08-30T08:16:03.964Z,5.85
2022-08-30T08:21:17.234Z,5.43
2022-08-30T08:26:41.101Z,4.72
2022-08-30T08:32:19.816Z,7.80
2022-08-30T08:37:58.554Z,3.35
2022-08-30T08:44:00.478Z,3.13
2022-08-30T08:49:24.867Z,6.30
2022-08-30T08:54:47.997Z,6.38
2022-08-30T09:00:24.712Z,4.80
2022-08-30T09:05:34.311Z,5.63
2022-08-30T09:10:50.486Z,3.95
2022-08-30T09:15:59.490Z,5.95
2022-08-30T09:21:11.625Z,3.80
2022-08-30T09:26:14.643Z,2.92
2022-08-30T09:31:21.793Z,3.22
2022-08-30T09:36:29.466Z,3.47
2022-08-30T09:41:39.985Z,3.45
2022-08-30T09:46:50.103Z,2.20
2022-08-30T09:52:00.001Z,3.28
2022-08-30T09:57:13.120Z,4.10
2022-08-30T10:02:44.074Z,5.90
2022-08-30T10:07:53.734Z,2.63
2022-08-30T10:13:07.333Z,2.38
2022-08-30T10:18:19.672Z,3.95
2022-08-30T10:23:28.167Z,6.35
2022-08-30T10:28:36.017Z,12.23
2022-08-30T10:33:46.085Z,5.80
2022-08-30T10:38:51.848Z,5.38
2022-08-30T10:43:59.082Z,5.60
2022-08-30T10:49:06.580Z,1.88
2022-08-30T10:54:15.740Z,2.22
2022-08-30T11:19:34.408Z,3.63
2022-08-30T11:25:12.723Z,4.93
2022-08-30T11:30:47.434Z,4.20
2022-08-30T11:35:53.864Z,2.92
2022-08-30T11:41:10.478Z,2.97
2022-08-30T11:46:24.373Z,2.80
2022-08-30T11:52:02.975Z,4.07
2022-08-30T11:57:22.418Z,5.03
2022-08-30T12:02:56.363Z,4.47
2022-08-30T12:08:16.971Z,1.98
2022-08-30T12:13:55.280Z,3.65
2022-08-30T12:19:16.325Z,5.07
2022-08-30T12:24:34.862Z,1.90
2022-08-30T12:41:54.658Z,3.50
2022-08-30T12:53:14.155Z,4.97
2022-08-30T13:10:48.950Z,4.70
2022-08-30T13:17:05.032Z,3.10
2022-08-30T13:22:25.761Z,2.88
2022-08-30T13:27:31.054Z,4.20
2022-08-30T13:32:38.881Z,2.95
2022-08-30T13:37:49.687Z,2.00
2022-08-30T13:42:53.777Z,2.08
2022-08-30T13:47:58.185Z,4.13
2022-08-30T13:53:01.040Z,8.18
2022-08-30T13:58:03.955Z,3.50
2022-08-30T14:03:08.704Z,4.35
2022-08-30T14:13:35.756Z,2.33
2022-08-30T14:18:40.921Z,4.35
2022-08-30T14:23:43.791Z,5.13
2022-08-30T14:28:46.829Z,2.65
2022-08-30T14:33:55.998Z,2.38
2022-08-30T14:38:58.907Z,4.55
2022-08-30T14:44:02.242Z,2.40
2022-08-30T14:49:06.903Z,5.10
2022-08-30T14:54:13.901Z,1.42
2022-08-30T14:59:18.250Z,2.85
2022-08-30T15:04:22.426Z,2.72
2022-08-30T15:09:25.889Z,2.67
2022-08-30T15:14:29.546Z,2.85
2022-08-30T15:19:33.864Z,3.85
2022-08-30T15:24:36.604Z,2.45
2022-08-30T15:29:39.384Z,2.20
2022-08-30T15:34:43.471Z,2.58
2022-08-30T15:39:51.128Z,3.13
2022-08-30T15:44:54.536Z,4.20
2022-08-30T15:50:01.988Z,2.47
2022-08-30T15:55:06.697Z,2.47
2022-08-30T16:00:11.398Z,2.60
2022-08-30T16:05:15.864Z,5.68
2022-08-30T16:10:20.420Z,6.88
2022-08-30T16:15:23.232Z,1.98
2022-08-30T16:20:29.529Z,1.70
2022-08-30T16:25:40.628Z,2.25
2022-08-30T16:30:45.487Z,5.28
2022-08-30T16:35:53.142Z,3.50
2022-08-30T16:40:58.879Z,2.53
2022-08-30T16:46:02.673Z,2.58
2022-08-30T16:51:10.003Z,2.67
2022-08-30T16:56:15.898Z,3.85
2022-08-30T17:01:20.875Z,5.07
2022-08-30T17:06:26.576Z,2.58
2022-08-30T17:11:29.654Z,2.17
2022-08-30T17:16:32.840Z,4.32
2022-08-30T17:21:37.272Z,5.75
2022-08-30T17:26:41.801Z,6.03
2022-08-30T17:31:50.882Z,2.80
2022-08-30T17:37:13.752Z,2.90
2022-08-30T17:42:16.771Z,5.13
2022-08-30T17:47:19.534Z,5.82
2022-08-30T17:52:23.590Z,3.42
2022-08-30T17:57:26.374Z,3.10
2022-08-30T18:02:30.236Z,3.25
2022-08-30T18:07:34.704Z,4.40
2022-08-30T18:12:37.416Z,3.47
2022-08-30T18:17:41.203Z,3.17
2022-08-30T18:22:45.229Z,5.30
2022-08-30T18:27:57.174Z,3.33
2022-08-30T18:33:01.715Z,3.40
2022-08-30T18:38:07.097Z,5.75
2022-08-30T18:43:10.029Z,5.88
2022-08-30T18:48:14.389Z,6.68
2022-08-30T18:53:28.367Z,5.15
2022-08-30T18:58:33.049Z,3.63
2022-08-30T19:03:37.300Z,5.32
2022-08-30T19:08:45.879Z,3.80
2022-08-30T19:13:48.905Z,4.07
2022-08-30T19:18:54.183Z,3.65
2022-08-30T19:23:58.222Z,4.75
2022-08-30T19:29:01.692Z,8.77
2022-08-30T19:34:04.978Z,5.65
2022-08-30T19:39:09.927Z,5.07
2022-08-30T19:44:12.910Z,5.07
2022-08-30T19:49:15.597Z,6.75
2022-08-30T19:54:19.635Z,7.93
2022-08-30T19:59:22.519Z,6.38
2022-08-30T20:04:25.607Z,4.00
2022-08-30T20:09:29.649Z,6.43
2022-08-30T20:14:32.348Z,5.50
2022-08-30T20:19:35.177Z,5.40
2022-08-30T20:24:39.543Z,7.10
2022-08-30T20:29:46.714Z,5.47
2022-08-30T20:34:50.131Z,6.90
2022-08-30T20:39:56.892Z,3.95
2022-08-30T20:45:00.170Z,5.68
2022-08-30T20:50:05.667Z,3.97
2022-08-30T20:55:17.253Z,3.75
2022-08-30T21:00:20.250Z,4.95
2022-08-30T21:05:22.996Z,5.75
2022-08-30T21:10:27.229Z,5.00
2022-08-30T21:15:38.331Z,6.00
2022-08-30T21:20:41.282Z,6.32
2022-08-30T21:25:45.310Z,4.55
2022-08-30T21:30:48.029Z,5.13
2022-08-30T21:36:08.513Z,3.60
2022-08-30T21:41:12.831Z,6.22
2022-08-30T21:46:16.797Z,5.25
2022-08-30T21:51:19.802Z,5.35
2022-08-30T21:56:24.486Z,6.43
2022-08-30T22:01:30.128Z,4.78
2022-08-30T22:06:35.460Z,5.25
2022-08-30T22:11:39.463Z,4.97
2022-08-30T22:16:42.536Z,5.00
2022-08-30T22:21:47.897Z,4.68
2022-08-30T22:26:51.935Z,4.40
2022-08-30T22:31:54.952Z,5.63
2022-08-30T22:36:58.035Z,4.18
2022-08-30T22:42:02.117Z,5.68
2022-08-30T22:47:05.002Z,5.63
2022-08-30T22:52:07.912Z,4.30
2022-08-30T22:57:14.802Z,4.90
2022-08-30T23:02:17.604Z,3.72
2022-08-30T23:07:20.341Z,5.55
2022-08-30T23:12:24.430Z,4.68
2022-08-30T23:17:27.185Z,4.20
2022-08-30T23:22:34.509Z,3.50
2022-08-30T23:27:56.476Z,4.95
2022-08-30T23:33:17.009Z,4.22
2022-08-30T23:38:37.695Z,6.30
2022-08-30T23:43:59.588Z,4.22
2022-08-30T23:49:20.408Z,6.03
2022-08-30T23:54:41.020Z,5.18
